createdAt,value
2022-11-16T00:01:52.367Z,12.00
2022-11-16T00:04:20.090Z,9.93
2022-11-16T00:06:50.416Z,11.38
2022-11-16T00:09:24.089Z,10.55
2022-11-16T00:11:58.002Z,9.18
2022-11-16T00:14:27.974Z,9.32
2022-11-16T00:16:56.218Z,11.55
2022-11-16T00:19:24.605Z,10.55
2022-11-16T00:21:52.613Z,10.98
2022-11-16T00:24:21.974Z,11.55
2022-11-16T00:26:50.163Z,11.55
2022-11-16T00:29:20.405Z,13.40
2022-11-16T00:31:48.793Z,11.40
2022-11-16T00:34:16.835Z,13.40
2022-11-16T00:36:44.558Z,11.60
2022-11-16T00:39:16.897Z,11.60
2022-11-16T00:41:45.863Z,13.13
2022-11-16T00:44:14.230Z,11.65
2022-11-16T00:46:42.806Z,10.32
2022-11-16T00:49:10.912Z,12.35
2022-11-16T00:51:39.141Z,12.27
2022-11-16T00:54:08.794Z,12.23
2022-11-16T00:56:37.554Z,11.88
2022-11-16T00:59:05.186Z,11.20
2022-11-16T01:01:32.872Z,11.10
2022-11-16T01:04:00.568Z,13.73
2022-11-16T01:06:28.174Z,13.60
2022-11-16T01:08:55.852Z,11.68
2022-11-16T01:11:42.301Z,13.65
2022-11-16T01:14:10.992Z,12.13
2022-11-16T01:16:38.733Z,11.60
2022-11-16T01:19:07.020Z,12.75
2022-11-16T01:21:35.529Z,13.10
2022-11-16T01:24:03.302Z,11.20
2022-11-16T01:26:31.035Z,11.35
2022-11-16T01:29:00.749Z,12.85
2022-11-16T01:31:28.412Z,11.38
2022-11-16T01:33:56.189Z,11.27
2022-11-16T01:36:24.141Z,12.95
2022-11-16T01:38:51.817Z,12.70
2022-11-16T01:41:23.301Z,12.27
2022-11-16T01:44:00.368Z,11.65
2022-11-16T01:46:29.477Z,12.23
2022-11-16T01:49:17.194Z,12.65
2022-11-16T01:51:50.311Z,14.32
2022-11-16T01:54:18.533Z,11.68
2022-11-16T01:56:49.861Z,11.00
2022-11-16T01:59:18.548Z,10.88
2022-11-16T02:01:46.277Z,10.57
2022-11-16T02:04:14.970Z,10.95
2022-11-16T02:07:06.055Z,10.93
2022-11-16T02:10:05.215Z,9.65
2022-11-16T02:12:44.778Z,10.02
2022-11-16T02:15:27.487Z,10.75
2022-11-16T02:18:32.324Z,10.05
2022-11-16T02:21:14.514Z,12.35
2022-11-16T02:23:54.692Z,13.25
2022-11-16T02:27:07.010Z,11.80
2022-11-16T02:29:43.825Z,13.07
2022-11-16T02:32:35.327Z,14.57
2022-11-16T02:35:16.427Z,11.30
2022-11-16T02:37:54.128Z,13.80
2022-11-16T02:40:25.032Z,11.43
2022-11-16T02:43:01.221Z,12.88
2022-11-16T02:45:33.948Z,11.80
2022-11-16T02:48:07.966Z,10.68
2022-11-16T02:50:38.000Z,10.60
2022-11-16T02:53:05.621Z,12.65
2022-11-16T02:55:35.547Z,10.48
2022-11-16T02:58:10.907Z,12.20
2022-11-16T03:00:47.558Z,12.35
2022-11-16T03:03:30.606Z,11.52
2022-11-16T03:06:22.781Z,14.30
2022-11-16T03:09:18.425Z,11.77
2022-11-16T03:12:00.943Z,11.07
2022-11-16T03:14:31.348Z,13.55
2022-11-16T03:16:59.744Z,11.23
2022-11-16T03:19:58.172Z,12.40
2022-11-16T03:22:45.679Z,12.02
2022-11-16T03:25:17.032Z,13.00
2022-11-16T03:27:56.210Z,10.88
2022-11-16T03:30:26.528Z,13.98
2022-11-16T03:33:26.998Z,12.02
2022-11-16T03:36:16.417Z,11.05
2022-11-16T03:38:47.674Z,10.93
2022-11-16T03:41:16.365Z,9.98
2022-11-16T03:43:45.893Z,12.15
2022-11-16T03:46:14.969Z,11.38
2022-11-16T03:48:43.573Z,10.43
2022-11-16T03:51:13.296Z,11.63
2022-11-16T03:53:41.034Z,10.43
2022-11-16T03:56:08.891Z,12.40
2022-11-16T03:58:36.620Z,9.82
2022-11-16T04:01:04.687Z,11.80
2022-11-16T04:03:32.463Z,10.15
2022-11-16T04:06:18.777Z,12.00
2022-11-16T04:09:04.927Z,9.57
2022-11-16T04:11:51.491Z,10.45
2022-11-16T04:14:40.700Z,11.80
2022-11-16T04:17:34.861Z,11.15
2022-11-16T04:20:21.641Z,8.57
2022-11-16T04:23:18.722Z,9.30
2022-11-16T04:25:47.874Z,9.57
2022-11-16T04:28:17.694Z,10.13
2022-11-16T04:31:07.594Z,9.18
2022-11-16T04:33:53.750Z,8.80
2022-11-16T04:36:40.121Z,9.38
2022-11-16T04:39:08.390Z,9.05
2022-11-16T04:41:54.834Z,8.85
2022-11-16T04:44:26.024Z,8.93
2022-11-16T04:47:09.407Z,9.18
2022-11-16T04:49:37.027Z,9.18
2022-11-16T04:52:04.859Z,8.75
2022-11-16T04:54:32.496Z,8.20
2022-11-16T04:57:00.084Z,8.95
2022-11-16T04:59:27.723Z,7.87
2022-11-16T05:02:10.552Z,9.25
2022-11-16T05:04:40.036Z,8.35
2022-11-16T05:07:12.013Z,8.18
2022-11-16T05:09:45.072Z,9.68
2022-11-16T05:12:16.028Z,7.80
2022-11-16T05:14:44.569Z,9.20
2022-11-16T05:17:13.358Z,8.13
2022-11-16T05:19:59.725Z,8.68
2022-11-16T05:22:27.485Z,9.40
2022-11-16T05:24:55.305Z,7.82
2022-11-16T05:27:24.553Z,7.82
2022-11-16T05:29:52.822Z,7.82
2022-11-16T05:32:21.544Z,8.57
2022-11-16T05:34:49.584Z,9.32
2022-11-16T05:37:18.688Z,8.43
2022-11-16T05:39:46.450Z,7.70
2022-11-16T05:42:15.057Z,8.48
2022-11-16T05:44:42.749Z,7.80
2022-11-16T05:47:10.395Z,9.20
2022-11-16T05:49:38.078Z,8.73
2022-11-16T05:52:05.730Z,7.03
2022-11-16T05:54:33.398Z,7.87
2022-11-16T05:57:01.252Z,7.78
2022-11-16T05:59:30.411Z,8.25
2022-11-16T06:01:58.957Z,10.45
2022-11-16T06:04:26.657Z,10.85
2022-11-16T06:06:54.406Z,8.27
2022-11-16T06:09:22.182Z,7.55
2022-11-16T06:11:49.883Z,8.70
2022-11-16T06:14:17.823Z,8.88
2022-11-16T06:16:45.444Z,9.15
2022-11-16T06:19:13.131Z,8.02
2022-11-16T06:21:40.829Z,9.52
2022-11-16T06:24:10.548Z,8.55
2022-11-16T06:26:38.485Z,9.48
2022-11-16T06:29:06.334Z,9.07
2022-11-16T06:31:34.028Z,8.93
2022-11-16T06:34:01.677Z,9.20
2022-11-16T06:36:29.463Z,9.95
2022-11-16T06:38:57.101Z,12.00
2022-11-16T06:41:24.877Z,8.38
2022-11-16T06:43:52.622Z,12.40
2022-11-16T06:46:20.336Z,8.15
2022-11-16T06:48:48.008Z,9.45
2022-11-16T06:51:15.664Z,11.35
2022-11-16T06:53:43.454Z,7.53
2022-11-16T06:56:14.660Z,10.20
2022-11-16T06:58:43.019Z,8.52
2022-11-16T07:01:12.909Z,10.82
2022-11-16T07:03:40.865Z,9.30
2022-11-16T07:06:12.889Z,9.35
2022-11-16T07:08:40.894Z,8.38
2022-11-16T07:11:11.125Z,8.68
2022-11-16T07:13:40.233Z,10.05
2022-11-16T07:16:09.746Z,9.32
2022-11-16T07:18:40.361Z,9.07
2022-11-16T07:21:09.822Z,6.50
2022-11-16T07:23:37.894Z,8.13
2022-11-16T07:26:07.354Z,6.22
2022-11-16T07:28:35.691Z,5.65
2022-11-16T07:31:04.573Z,5.75
2022-11-16T07:33:32.223Z,8.88
2022-11-16T07:36:04.150Z,6.15
2022-11-16T07:38:33.444Z,8.40
2022-11-16T07:41:05.782Z,6.20
2022-11-16T07:43:36.208Z,6.53
2022-11-16T07:46:44.673Z,6.03
2022-11-16T07:48:57.929Z,5.82
2022-11-16T07:51:25.578Z,5.70
2022-11-16T07:53:57.038Z,4.43
2022-11-16T07:56:25.606Z,4.45
2022-11-16T07:58:53.645Z,5.10
2022-11-16T08:01:21.325Z,5.22
2022-11-16T08:03:49.269Z,4.18
2022-11-16T08:06:24.446Z,4.30
2022-11-16T08:08:57.809Z,4.47
2022-11-16T08:11:26.349Z,4.12
2022-11-16T08:13:53.991Z,4.07
2022-11-16T08:16:23.684Z,4.20
2022-11-16T08:18:51.633Z,4.57
2022-11-16T08:21:20.192Z,4.25
2022-11-16T08:23:48.754Z,4.12
2022-11-16T08:26:20.131Z,3.87
2022-11-16T08:28:51.957Z,4.65
2022-11-16T08:31:22.344Z,4.25
2022-11-16T08:33:50.062Z,4.87
2022-11-16T08:36:20.582Z,6.97
2022-11-16T08:38:50.084Z,5.18
2022-11-16T08:41:19.262Z,3.67
2022-11-16T08:43:48.361Z,4.18
2022-11-16T08:46:16.421Z,4.65
2022-11-16T08:48:44.076Z,3.80
2022-11-16T08:51:19.211Z,4.03
2022-11-16T08:53:49.211Z,4.10
2022-11-16T08:56:19.018Z,5.55
2022-11-16T08:58:55.255Z,4.78
2022-11-16T09:01:28.155Z,4.30
2022-11-16T09:03:56.046Z,4.30
2022-11-16T09:06:25.330Z,3.67
2022-11-16T09:08:53.838Z,3.42
2022-11-16T09:11:23.519Z,3.53
2022-11-16T09:13:53.284Z,4.15
2022-11-16T09:16:22.135Z,3.40
2022-11-16T09:18:51.996Z,3.50
2022-11-16T09:21:21.979Z,5.90
2022-11-16T09:23:50.553Z,3.33
2022-11-16T09:26:22.054Z,3.40
2022-11-16T09:28:56.910Z,2.50
2022-11-16T09:31:25.554Z,5.70
2022-11-16T09:33:53.466Z,3.40
2022-11-16T09:36:22.397Z,3.60
2022-11-16T09:41:53.671Z,3.45
2022-11-16T09:44:47.588Z,3.20
2022-11-16T09:47:46.747Z,2.33
2022-11-16T09:50:35.455Z,3.25
2022-11-16T09:53:18.811Z,2.75
2022-11-16T09:55:53.207Z,2.25
2022-11-16T09:59:13.531Z,1.92
2022-11-16T10:01:49.975Z,2.00
2022-11-16T10:04:56.682Z,2.35
2022-11-16T10:07:43.135Z,3.33
2022-11-16T10:10:15.986Z,2.05
2022-11-16T10:13:04.981Z,3.33
2022-11-16T10:15:55.445Z,2.85
2022-11-16T10:18:25.749Z,2.78
2022-11-16T10:21:23.215Z,2.45
2022-11-16T10:24:29.388Z,4.90
2022-11-16T10:27:38.966Z,1.90
2022-11-16T10:30:13.079Z,4.03
2022-11-16T10:32:48.954Z,2.53
2022-11-16T10:35:21.078Z,3.00
2022-11-16T10:37:52.809Z,2.37
2022-11-16T10:40:41.084Z,4.62
2022-11-16T10:43:20.642Z,3.35
2022-11-16T10:46:13.894Z,2.00
2022-11-16T10:49:00.028Z,2.60
2022-11-16T10:51:27.663Z,2.53
2022-11-16T10:53:56.839Z,1.77
2022-11-16T10:56:32.963Z,4.28
2022-11-16T10:59:12.753Z,2.15
2022-11-16T11:01:58.600Z,2.42
2022-11-16T11:04:29.204Z,2.42
2022-11-16T11:07:24.869Z,2.08
2022-11-16T11:09:55.888Z,1.55
2022-11-16T11:12:40.116Z,2.33
2022-11-16T11:15:13.659Z,1.77
2022-11-16T11:17:50.267Z,2.05
2022-11-16T11:20:17.952Z,3.10
2022-11-16T11:23:01.084Z,3.83
2022-11-16T11:25:38.389Z,1.77
2022-11-16T11:28:19.939Z,4.65
2022-11-16T11:31:10.752Z,1.73
2022-11-16T11:33:43.624Z,2.28
2022-11-16T11:36:22.631Z,6.00
2022-11-16T11:39:29.360Z,2.72
2022-11-16T11:42:08.197Z,3.35
2022-11-16T11:44:45.980Z,1.50
2022-11-16T11:47:57.900Z,1.87
2022-11-16T11:50:37.019Z,2.25
2022-11-16T11:53:36.088Z,3.55
2022-11-16T11:56:04.130Z,2.47
2022-11-16T11:58:35.066Z,2.75
2022-11-16T12:01:23.779Z,4.65
2022-11-16T12:04:14.200Z,2.17
2022-11-16T12:06:49.997Z,2.00
2022-11-16T12:09:28.691Z,1.15
2022-11-16T12:12:24.442Z,4.25
2022-11-16T12:15:19.884Z,1.73
2022-11-16T12:18:10.492Z,1.45
2022-11-16T12:20:47.344Z,2.03
2022-11-16T12:23:42.375Z,1.60
2022-11-16T12:26:35.948Z,1.00
2022-11-16T12:29:12.444Z,1.30
2022-11-16T12:31:49.107Z,2.45
2022-11-16T12:34:47.530Z,2.85
2022-11-16T12:37:27.149Z,2.85
2022-11-16T12:40:26.994Z,2.62
2022-11-16T12:43:06.769Z,2.10
2022-11-16T12:46:03.608Z,2.08
2022-11-16T12:48:51.005Z,1.83
2022-11-16T12:51:21.292Z,0.80
2022-11-16T12:53:51.812Z,1.30
2022-11-16T12:56:35.331Z,1.20
2022-11-16T12:59:02.857Z,1.52
2022-11-16T13:01:42.208Z,2.55
2022-11-16T13:04:33.272Z,2.70
2022-11-16T13:07:15.335Z,1.92
2022-11-16T13:09:52.296Z,1.30
2022-11-16T13:12:24.576Z,1.50
2022-11-16T13:14:56.017Z,2.20
2022-11-16T13:17:28.448Z,1.77
2022-11-16T13:20:13.269Z,1.92
2022-11-16T13:22:48.096Z,2.15
2022-11-16T13:25:44.942Z,2.35
2022-11-16T13:28:27.125Z,1.85
2022-11-16T13:31:07.157Z,2.90
2022-11-16T13:33:50.459Z,2.12
2022-11-16T13:36:33.715Z,3.60
2022-11-16T13:39:01.455Z,1.10
2022-11-16T13:41:32.203Z,3.80
2022-11-16T13:44:00.568Z,2.05
2022-11-16T13:46:57.173Z,1.27
2022-11-16T13:49:34.963Z,1.00
2022-11-16T13:52:40.429Z,1.15
2022-11-16T13:55:14.330Z,1.65
2022-11-16T13:57:53.957Z,1.75
2022-11-16T14:00:24.898Z,1.15
2022-11-16T14:03:18.045Z,0.93
2022-11-16T14:05:50.810Z,1.23
2022-11-16T14:08:21.629Z,2.10
2022-11-16T14:10:51.945Z,1.35
2022-11-16T14:13:49.340Z,1.23
2022-11-16T14:16:22.968Z,1.25
2022-11-16T14:18:56.456Z,1.62
2022-11-16T14:21:27.888Z,1.42
2022-11-16T14:24:20.693Z,1.37
2022-11-16T14:27:30.411Z,2.83
2022-11-16T14:30:06.739Z,2.12
2022-11-16T14:32:42.539Z,2.92
2022-11-16T14:35:42.649Z,1.12
2022-11-16T14:38:37.447Z,0.93
2022-11-16T14:41:19.342Z,0.80
2022-11-16T14:43:51.555Z,2.35
2022-11-16T14:46:39.305Z,1.00
2022-11-16T14:49:15.477Z,1.10
2022-11-16T14:51:54.336Z,1.55
2022-11-16T14:54:43.603Z,1.27
2022-11-16T14:57:20.434Z,1.67
2022-11-16T14:59:48.298Z,1.75
2022-11-16T15:02:21.794Z,3.50
2022-11-16T15:04:51.212Z,1.95
2022-11-16T15:07:20.256Z,2.03
2022-11-16T15:09:51.624Z,1.52
2022-11-16T15:12:42.407Z,1.10
2022-11-16T15:15:12.743Z,2.47
2022-11-16T15:17:43.480Z,1.20
2022-11-16T15:20:21.630Z,1.08
2022-11-16T15:22:52.989Z,2.97
2022-11-16T15:25:41.615Z,1.30
2022-11-16T15:28:22.554Z,1.48
2022-11-16T15:30:53.628Z,3.78
2022-11-16T15:33:26.435Z,2.85
2022-11-16T15:35:56.511Z,1.35
2022-11-16T15:38:30.121Z,4.32
2022-11-16T15:41:03.522Z,3.85
2022-11-16T15:43:41.082Z,2.45
2022-11-16T15:46:15.026Z,8.32
2022-11-16T15:48:44.195Z,11.05
2022-11-16T15:51:21.109Z,6.10
2022-11-16T15:53:50.723Z,4.37
2022-11-16T15:56:23.684Z,4.87
2022-11-16T15:58:52.783Z,4.90
2022-11-16T16:01:22.016Z,5.30
2022-11-16T16:03:53.039Z,3.72
2022-11-16T16:06:43.147Z,3.67
2022-11-16T16:09:32.054Z,4.87
2022-11-16T16:12:19.970Z,3.83
2022-11-16T16:14:50.257Z,4.80
2022-11-16T16:17:31.160Z,2.25
2022-11-16T16:20:07.541Z,4.47
2022-11-16T16:22:38.818Z,2.62
2022-11-16T16:25:08.237Z,2.95
2022-11-16T16:27:41.021Z,5.37
2022-11-16T16:30:09.755Z,3.40
2022-11-16T16:32:38.778Z,3.72
2022-11-16T16:35:08.943Z,2.70
2022-11-16T16:37:39.469Z,3.50
2022-11-16T16:40:07.829Z,2.67
2022-11-16T16:42:35.512Z,4.03
2022-11-16T16:45:04.181Z,4.72
2022-11-16T16:47:32.694Z,3.22
2022-11-16T16:50:00.333Z,3.37
2022-11-16T16:52:28.882Z,3.37
2022-11-16T16:54:56.507Z,5.57
2022-11-16T16:57:24.106Z,3.17
2022-11-16T16:59:51.702Z,5.50
2022-11-16T17:02:19.402Z,6.82
2022-11-16T17:04:50.126Z,2.50
2022-11-16T17:07:17.922Z,4.10
2022-11-16T17:09:45.687Z,5.25
2022-11-16T17:12:13.426Z,4.22
2022-11-16T17:14:41.254Z,4.32
2022-11-16T17:17:08.932Z,3.53
2022-11-16T17:19:36.602Z,5.05
2022-11-16T17:22:04.393Z,4.82
2022-11-16T17:24:32.056Z,3.10
2022-11-16T17:26:59.701Z,3.58
2022-11-16T17:29:27.353Z,4.05
2022-11-16T17:31:55.359Z,3.15
2022-11-16T17:34:23.226Z,3.28
2022-11-16T17:36:50.889Z,4.97
2022-11-16T17:39:18.775Z,4.18
2022-11-16T17:41:46.564Z,4.62
2022-11-16T17:44:20.165Z,4.87
2022-11-16T17:46:49.425Z,5.53
2022-11-16T17:49:17.073Z,5.85
2022-11-16T17:51:45.322Z,4.72
2022-11-16T17:54:13.128Z,5.57
2022-11-16T17:56:40.973Z,5.82
2022-11-16T17:59:08.608Z,4.87
2022-11-16T18:01:36.307Z,5.87
2022-11-16T18:04:04.100Z,5.20
2022-11-16T18:06:33.304Z,5.12
2022-11-16T18:09:01.288Z,5.82
2022-11-16T18:11:29.731Z,7.07
2022-11-16T18:14:00.196Z,5.28
2022-11-16T18:16:30.992Z,5.97
2022-11-16T18:19:01.119Z,6.75
2022-11-16T18:21:29.313Z,6.93
2022-11-16T18:23:59.398Z,7.35
2022-11-16T18:26:27.350Z,7.20
2022-11-16T18:28:55.418Z,7.40
2022-11-16T18:31:25.026Z,7.65
2022-11-16T18:33:53.054Z,6.18
2022-11-16T18:36:21.960Z,7.10
2022-11-16T18:38:50.115Z,8.48
2022-11-16T18:41:20.848Z,7.93
2022-11-16T18:43:51.223Z,10.32
2022-11-16T18:46:22.940Z,8.95
2022-11-16T18:48:51.492Z,8.25
2022-11-16T18:51:20.898Z,10.85
2022-11-16T18:53:49.139Z,13.25
2022-11-16T18:56:17.612Z,12.70
2022-11-16T18:58:53.591Z,13.70
2022-11-16T19:01:24.209Z,11.80
2022-11-16T19:03:53.304Z,9.55
2022-11-16T19:06:21.699Z,11.30
2022-11-16T19:08:56.028Z,7.85
2022-11-16T19:11:25.352Z,7.47
2022-11-16T19:13:58.824Z,5.62
2022-11-16T19:16:28.412Z,6.10
2022-11-16T19:18:56.438Z,4.37
2022-11-16T19:21:24.542Z,5.37
2022-11-16T19:23:57.128Z,4.22
2022-11-16T19:26:28.990Z,3.78
2022-11-16T19:28:56.847Z,5.07
2022-11-16T19:31:28.606Z,4.07
2022-11-16T19:33:58.113Z,5.10
2022-11-16T19:36:27.304Z,5.28
2022-11-16T19:38:55.343Z,5.93
2022-11-16T19:41:23.650Z,4.85
2022-11-16T19:43:53.815Z,5.30
2022-11-16T19:46:22.522Z,5.12
2022-11-16T19:48:50.726Z,6.32
2022-11-16T19:51:21.646Z,6.20
2022-11-16T19:53:49.459Z,5.75
2022-11-16T19:56:19.183Z,6.87
2022-11-16T19:58:47.268Z,5.37
2022-11-16T20:01:18.724Z,5.05
2022-11-16T20:03:47.723Z,7.45
2022-11-16T20:06:21.468Z,7.43
2022-11-16T20:09:01.924Z,6.82
2022-11-16T20:11:31.497Z,6.53
2022-11-16T20:13:59.857Z,6.95
2022-11-16T20:16:34.058Z,6.85
2022-11-16T20:19:05.196Z,5.85
2022-11-16T20:21:38.415Z,6.43
2022-11-16T20:24:08.216Z,8.25
2022-11-16T20:26:37.580Z,7.18
2022-11-16T20:29:05.351Z,8.00
2022-11-16T20:31:34.491Z,8.20
2022-11-16T20:34:05.088Z,7.47
2022-11-16T20:36:34.660Z,8.35
2022-11-16T20:39:02.588Z,9.00
2022-11-16T20:41:31.804Z,8.65
2022-11-16T20:44:01.256Z,10.70
2022-11-16T20:46:31.038Z,9.07
2022-11-16T20:49:00.528Z,7.62
2022-11-16T20:51:29.951Z,8.55
2022-11-16T20:53:57.749Z,9.57
2022-11-16T20:56:25.502Z,7.43
2022-11-16T20:58:53.234Z,9.15
2022-11-16T21:01:29.876Z,8.40
2022-11-16T21:03:58.581Z,10.82
2022-11-16T21:06:26.384Z,9.48
2022-11-16T21:08:54.865Z,8.27
2022-11-16T21:11:26.159Z,9.98
2022-11-16T21:14:12.446Z,8.68
2022-11-16T21:16:40.798Z,11.85
2022-11-16T21:19:08.663Z,10.43
2022-11-16T21:21:36.414Z,11.15
2022-11-16T21:24:04.064Z,13.75
2022-11-16T21:26:33.204Z,13.13
2022-11-16T21:29:02.388Z,15.07
2022-11-16T21:31:35.686Z,16.48
2022-11-16T21:34:03.765Z,15.93
2022-11-16T21:36:33.549Z,17.02
2022-11-16T21:39:01.568Z,21.23
2022-11-16T21:41:29.297Z,15.98
2022-11-16T21:43:57.054Z,15.48
2022-11-16T21:46:27.069Z,10.32
2022-11-16T21:48:57.285Z,8.88
2022-11-16T21:51:27.414Z,4.68
2022-11-16T21:53:55.882Z,4.37
2022-11-16T21:56:25.971Z,6.18
2022-11-16T21:58:54.740Z,5.53
2022-11-16T22:01:23.599Z,6.78
2022-11-16T22:04:11.274Z,12.90
2022-11-16T22:06:57.947Z,21.33
2022-11-16T22:09:25.671Z,21.90
2022-11-16T22:11:53.272Z,13.52
2022-11-16T22:14:20.942Z,8.88
2022-11-16T22:16:48.611Z,5.85
2022-11-16T22:19:16.225Z,5.80
2022-11-16T22:21:43.808Z,8.00
2022-11-16T22:24:11.450Z,6.95
2022-11-16T22:26:40.953Z,6.55
2022-11-16T22:29:08.689Z,8.88
2022-11-16T22:31:37.187Z,8.02
2022-11-16T22:34:04.833Z,5.20
2022-11-16T22:36:32.470Z,5.10
2022-11-16T22:39:00.121Z,5.62
2022-11-16T22:41:27.745Z,6.32
2022-11-16T22:43:55.564Z,5.60
2022-11-16T22:46:23.226Z,4.80
2022-11-16T22:48:50.997Z,4.18
2022-11-16T22:51:26.173Z,5.40
2022-11-16T22:53:59.001Z,3.50
2022-11-16T22:56:27.664Z,4.05
2022-11-16T22:58:55.474Z,2.97
2022-11-16T23:01:23.618Z,4.50
2022-11-16T23:03:52.025Z,3.30
2022-11-16T23:06:19.733Z,3.28
2022-11-16T23:08:47.539Z,3.90
2022-11-16T23:11:36.059Z,3.40
2022-11-16T23:14:23.052Z,3.45
2022-11-16T23:16:51.043Z,3.42
2022-11-16T23:19:38.950Z,3.55
2022-11-16T23:22:26.371Z,3.45
2022-11-16T23:25:12.563Z,3.65
2022-11-16T23:27:56.484Z,4.25
2022-11-16T23:30:24.565Z,4.07
2022-11-16T23:32:52.326Z,5.50
2022-11-16T23:35:20.262Z,3.60
2022-11-16T23:37:58.267Z,5.35
2022-11-16T23:40:32.968Z,5.30
2022-11-16T23:43:19.283Z,3.30
2022-11-16T23:45:47.377Z,5.47
2022-11-16T23:48:17.072Z,3.95
2022-11-16T23:50:46.194Z,5.25
2022-11-16T23:53:14.491Z,4.68
2022-11-16T23:55:42.708Z,4.93
2022-11-16T23:58:15.468Z,5.15
